createdAt,value
2022-12-11T00:00:59.830Z,18.83
2022-12-11T00:02:02.691Z,16.05
2022-12-11T00:03:05.503Z,17.15
2022-12-11T00:04:08.226Z,17.13
2022-12-11T00:05:11.165Z,16.98
2022-12-11T00:06:17.091Z,17.95
2022-12-11T00:07:19.798Z,15.65
2022-12-11T00:08:22.629Z,17.20
2022-12-11T00:09:25.341Z,16.33
2022-12-11T00:10:28.932Z,16.65
2022-12-11T00:11:32.880Z,16.17
2022-12-11T00:12:35.726Z,15.60
2022-12-11T00:13:38.434Z,15.93
2022-12-11T00:14:41.609Z,16.90
2022-12-11T00:15:44.375Z,16.98
2022-12-11T00:16:48.645Z,15.15
2022-12-11T00:17:51.325Z,12.88
2022-12-11T00:18:54.341Z,14.45
2022-12-11T00:19:56.914Z,13.52
2022-12-11T00:21:07.375Z,15.80
2022-12-11T00:22:10.294Z,14.77
2022-12-11T00:23:13.186Z,13.57
2022-12-11T00:24:16.063Z,14.23
2022-12-11T00:25:18.746Z,15.07
2022-12-11T00:26:21.760Z,15.00
2022-12-11T00:27:25.480Z,13.85
2022-12-11T00:28:28.404Z,13.43
2022-12-11T00:29:31.145Z,15.05
2022-12-11T00:30:33.902Z,15.98
2022-12-11T00:31:36.717Z,14.88
2022-12-11T00:32:39.463Z,14.43
2022-12-11T00:33:43.339Z,15.73
2022-12-11T00:34:45.999Z,14.45
2022-12-11T00:35:48.919Z,15.63
2022-12-11T00:36:51.589Z,16.17
2022-12-11T00:37:54.346Z,15.07
2022-12-11T00:38:57.035Z,15.50
2022-12-11T00:39:59.761Z,15.45
2022-12-11T00:41:03.060Z,16.85
2022-12-11T00:42:07.715Z,16.73
2022-12-11T00:43:10.503Z,16.65
2022-12-11T00:44:13.218Z,14.60
2022-12-11T00:45:16.042Z,16.40
2022-12-11T00:46:19.915Z,14.80
2022-12-11T00:47:22.713Z,15.02
2022-12-11T00:48:25.413Z,15.95
2022-12-11T00:49:28.175Z,15.63
2022-12-11T00:50:30.816Z,16.10
2022-12-11T00:51:33.762Z,16.67
2022-12-11T00:52:36.729Z,15.40
2022-12-11T00:53:39.635Z,15.55
2022-12-11T00:54:42.338Z,15.45
2022-12-11T00:55:45.212Z,15.00
2022-12-11T00:56:48.130Z,15.15
2022-12-11T00:57:53.824Z,14.77
2022-12-11T00:58:56.999Z,14.77
2022-12-11T00:59:59.758Z,15.50
2022-12-11T01:01:10.412Z,16.27
2022-12-11T01:02:13.377Z,16.75
2022-12-11T01:03:17.358Z,15.90
2022-12-11T01:04:20.089Z,16.27
2022-12-11T01:05:22.831Z,14.80
2022-12-11T01:06:27.262Z,16.55
2022-12-11T01:07:30.371Z,16.25
2022-12-11T01:08:38.369Z,15.52
2022-12-11T01:10:00.170Z,15.63
2022-12-11T01:11:05.341Z,15.48
2022-12-11T01:12:08.196Z,16.55
2022-12-11T01:13:11.053Z,17.02
2022-12-11T01:14:14.791Z,16.83
2022-12-11T01:15:18.409Z,15.68
2022-12-11T01:16:21.197Z,16.48
2022-12-11T01:17:23.917Z,16.33
2022-12-11T01:18:26.686Z,15.73
2022-12-11T01:19:29.441Z,16.15
2022-12-11T01:20:32.474Z,15.95
2022-12-11T01:21:35.191Z,15.32
2022-12-11T01:22:37.828Z,18.45
2022-12-11T01:23:41.141Z,15.75
2022-12-11T01:24:44.195Z,16.98
2022-12-11T01:25:46.842Z,15.82
2022-12-11T01:26:49.563Z,16.63
2022-12-11T01:27:53.823Z,16.85
2022-12-11T01:28:56.661Z,15.65
2022-12-11T01:29:59.360Z,15.32
2022-12-11T01:31:02.246Z,16.50
2022-12-11T01:32:05.168Z,15.10
2022-12-11T01:33:07.796Z,15.85
2022-12-11T01:34:10.425Z,15.68
2022-12-11T01:35:14.124Z,17.17
2022-12-11T01:36:21.656Z,16.38
2022-12-11T01:37:24.376Z,14.93
2022-12-11T01:38:27.072Z,17.05
2022-12-11T01:39:29.768Z,15.70
2022-12-11T01:40:32.837Z,16.40
2022-12-11T01:41:35.679Z,17.42
2022-12-11T01:42:38.615Z,15.10
2022-12-11T01:43:59.584Z,15.82
2022-12-11T01:46:28.805Z,14.10
2022-12-11T01:47:31.499Z,14.25
2022-12-11T01:48:39.254Z,14.65
2022-12-11T01:49:44.744Z,14.20
2022-12-11T01:50:53.832Z,14.15
2022-12-11T01:52:06.380Z,15.13
2022-12-11T01:53:11.080Z,14.98
2022-12-11T01:54:15.484Z,14.68
2022-12-11T01:55:18.308Z,14.93
2022-12-11T01:56:21.075Z,15.23
2022-12-11T01:57:23.794Z,15.00
2022-12-11T01:58:31.260Z,15.50
2022-12-11T01:59:37.513Z,13.68
2022-12-11T02:00:40.451Z,14.65
2022-12-11T02:01:46.618Z,13.75
2022-12-11T02:02:50.333Z,14.90
2022-12-11T02:03:53.579Z,13.20
2022-12-11T02:04:57.250Z,13.70
2022-12-11T02:06:03.319Z,12.77
2022-12-11T02:07:06.545Z,13.88
2022-12-11T02:08:09.683Z,14.13
2022-12-11T02:09:15.460Z,14.20
2022-12-11T02:10:18.379Z,14.20
2022-12-11T02:11:22.183Z,13.57
2022-12-11T02:12:56.696Z,13.45
2022-12-11T02:14:20.685Z,12.95
2022-12-11T02:15:29.400Z,14.77
2022-12-11T02:16:48.669Z,14.25
2022-12-11T02:18:00.219Z,14.38
2022-12-11T02:19:18.299Z,14.18
2022-12-11T02:20:26.301Z,13.75
2022-12-11T02:21:43.434Z,13.90
2022-12-11T02:23:23.074Z,12.90
2022-12-11T02:24:40.368Z,12.73
2022-12-11T02:25:52.180Z,14.32
2022-12-11T02:26:57.851Z,13.55
2022-12-11T02:28:19.737Z,14.13
2022-12-11T02:29:51.529Z,13.68
2022-12-11T02:31:07.562Z,13.40
2022-12-11T02:32:17.949Z,13.32
2022-12-11T02:33:27.006Z,13.05
2022-12-11T02:34:45.208Z,12.55
2022-12-11T02:35:49.180Z,12.80
2022-12-11T02:36:55.916Z,12.90
2022-12-11T02:38:04.314Z,12.43
2022-12-11T02:39:09.654Z,13.77
2022-12-11T02:40:15.405Z,13.95
2022-12-11T02:41:19.851Z,12.02
2022-12-11T02:42:27.261Z,13.68
2022-12-11T02:43:31.903Z,13.07
2022-12-11T02:44:35.490Z,13.57
2022-12-11T02:45:40.033Z,12.43
2022-12-11T02:46:43.338Z,12.73
2022-12-11T02:47:47.733Z,12.45
2022-12-11T02:48:52.982Z,13.25
2022-12-11T02:49:57.285Z,12.27
2022-12-11T02:51:01.695Z,12.00
2022-12-11T02:52:05.713Z,13.77
2022-12-11T02:53:09.132Z,14.10
2022-12-11T02:54:20.862Z,15.02
2022-12-11T02:55:23.910Z,17.27
2022-12-11T02:56:31.197Z,14.48
2022-12-11T02:57:44.389Z,13.90
2022-12-11T02:58:55.295Z,14.23
2022-12-11T03:00:01.027Z,14.23
2022-12-11T03:01:03.728Z,14.25
2022-12-11T03:02:06.813Z,16.40
2022-12-11T03:03:09.613Z,14.55
2022-12-11T03:04:12.402Z,14.50
2022-12-11T03:05:15.823Z,14.90
2022-12-11T03:06:20.512Z,13.25
2022-12-11T03:07:28.110Z,13.23
2022-12-11T03:08:31.447Z,14.63
2022-12-11T03:09:34.162Z,13.82
2022-12-11T03:10:36.939Z,13.45
2022-12-11T03:11:39.863Z,12.50
2022-12-11T03:12:49.197Z,13.43
2022-12-11T03:13:54.728Z,13.20
2022-12-11T03:15:02.212Z,13.10
2022-12-11T03:16:20.082Z,12.68
2022-12-11T03:17:25.936Z,13.48
2022-12-11T03:18:42.264Z,12.75
2022-12-11T03:20:06.559Z,12.30
2022-12-11T03:21:20.314Z,12.15
2022-12-11T03:22:45.426Z,12.50
2022-12-11T03:23:57.551Z,12.88
2022-12-11T03:25:10.577Z,13.82
2022-12-11T03:26:15.871Z,13.02
2022-12-11T03:27:36.247Z,13.55
2022-12-11T03:28:59.405Z,8.98
2022-12-11T03:30:08.473Z,13.02
2022-12-11T03:31:24.252Z,10.77
2022-12-11T03:32:33.473Z,11.65
2022-12-11T03:33:44.914Z,12.48
2022-12-11T03:35:07.772Z,13.40
2022-12-11T03:36:18.155Z,12.82
2022-12-11T03:37:22.630Z,13.40
2022-12-11T03:38:31.662Z,13.85
2022-12-11T03:39:38.683Z,12.38
2022-12-11T03:40:42.746Z,12.02
2022-12-11T03:41:46.727Z,12.50
2022-12-11T03:42:52.668Z,12.13
2022-12-11T03:43:58.423Z,12.20
2022-12-11T03:45:02.847Z,12.38
2022-12-11T03:46:06.784Z,12.98
2022-12-11T03:47:10.431Z,12.85
2022-12-11T03:48:13.521Z,12.75
2022-12-11T03:49:19.917Z,11.07
2022-12-11T03:50:23.160Z,13.02
2022-12-11T03:51:26.007Z,12.45
2022-12-11T03:52:29.401Z,12.07
2022-12-11T03:53:33.716Z,12.07
2022-12-11T03:54:37.033Z,13.57
2022-12-11T03:55:40.099Z,12.50
2022-12-11T03:56:43.755Z,11.13
2022-12-11T03:57:46.426Z,12.60
2022-12-11T03:58:49.296Z,12.10
2022-12-11T03:59:52.126Z,12.27
2022-12-11T04:00:54.773Z,12.55
2022-12-11T04:01:57.899Z,12.95
2022-12-11T04:03:16.559Z,12.82
2022-12-11T04:04:19.403Z,12.50
2022-12-11T04:05:22.103Z,13.32
2022-12-11T04:06:24.958Z,12.35
2022-12-11T04:07:28.569Z,12.75
2022-12-11T04:08:31.317Z,14.50
2022-12-11T04:09:34.324Z,12.23
2022-12-11T04:10:37.135Z,11.98
2022-12-11T04:11:39.930Z,13.90
2022-12-11T04:12:42.658Z,11.95
2022-12-11T04:13:45.359Z,12.02
2022-12-11T04:15:03.164Z,12.88
2022-12-11T04:16:06.231Z,13.05
2022-12-11T04:17:08.988Z,12.10
2022-12-11T04:18:30.166Z,12.65
2022-12-11T04:19:51.486Z,12.63
2022-12-11T04:21:14.019Z,11.73
2022-12-11T04:22:36.964Z,10.43
2022-12-11T04:23:58.386Z,12.32
2022-12-11T04:25:02.070Z,10.93
2022-12-11T04:26:16.733Z,12.75
2022-12-11T04:27:39.577Z,12.10
2022-12-11T04:28:43.533Z,12.77
2022-12-11T04:29:46.273Z,11.90
2022-12-11T04:30:50.407Z,11.40
2022-12-11T04:31:53.089Z,12.63
2022-12-11T04:32:55.863Z,11.48
2022-12-11T04:33:58.551Z,11.43
2022-12-11T04:35:01.350Z,12.10
2022-12-11T04:36:04.430Z,11.35
2022-12-11T04:37:07.098Z,12.90
2022-12-11T04:38:09.760Z,11.10
2022-12-11T04:39:12.478Z,12.77
2022-12-11T04:40:17.740Z,11.40
2022-12-11T04:41:21.181Z,11.70
2022-12-11T04:42:24.001Z,11.18
2022-12-11T04:43:27.800Z,12.52
2022-12-11T04:44:30.478Z,13.43
2022-12-11T04:45:33.251Z,13.43
2022-12-11T04:46:37.198Z,12.88
2022-12-11T04:47:40.830Z,12.43
2022-12-11T04:48:43.742Z,12.75
2022-12-11T04:49:47.843Z,11.73
2022-12-11T04:50:50.666Z,11.55
2022-12-11T04:51:53.431Z,14.13
2022-12-11T04:52:56.799Z,11.15
2022-12-11T04:54:00.058Z,12.13
2022-12-11T04:55:05.190Z,12.38
2022-12-11T04:56:09.242Z,12.60
2022-12-11T04:57:11.880Z,11.88
2022-12-11T04:58:14.512Z,10.82
2022-12-11T04:59:17.407Z,12.38
2022-12-11T05:00:20.889Z,11.95
2022-12-11T05:01:23.963Z,11.40
2022-12-11T05:02:27.016Z,12.20
2022-12-11T05:03:30.256Z,12.85
2022-12-11T05:04:34.383Z,12.63
2022-12-11T05:05:37.172Z,12.68
2022-12-11T05:06:39.884Z,13.38
2022-12-11T05:07:43.009Z,12.45
2022-12-11T05:08:45.792Z,12.93
2022-12-11T05:09:49.199Z,13.45
2022-12-11T05:11:04.110Z,12.43
2022-12-11T05:12:06.891Z,11.60
2022-12-11T05:13:09.548Z,13.18
2022-12-11T05:14:12.551Z,12.15
2022-12-11T05:15:15.378Z,11.63
2022-12-11T05:16:19.675Z,12.13
2022-12-11T05:17:22.404Z,12.48
2022-12-11T05:18:25.602Z,11.23
2022-12-11T05:19:28.274Z,12.75
2022-12-11T05:20:31.200Z,13.20
2022-12-11T05:21:35.346Z,12.35
2022-12-11T05:22:40.671Z,12.30
2022-12-11T05:23:43.714Z,13.10
2022-12-11T05:24:46.730Z,11.55
2022-12-11T05:25:57.968Z,11.80
2022-12-11T05:28:03.952Z,10.85
2022-12-11T05:29:06.599Z,13.20
2022-12-11T05:30:10.430Z,12.15
2022-12-11T05:31:15.750Z,11.98
2022-12-11T05:32:18.683Z,10.85
2022-12-11T05:33:21.314Z,13.18
2022-12-11T05:34:24.007Z,11.05
2022-12-11T05:35:26.639Z,11.57
2022-12-11T05:36:32.261Z,11.75
2022-12-11T05:37:35.053Z,12.18
2022-12-11T05:38:38.777Z,11.45
2022-12-11T05:39:41.533Z,10.55
2022-12-11T05:40:44.477Z,11.38
2022-12-11T05:41:47.193Z,13.82
2022-12-11T05:42:49.912Z,11.35
2022-12-11T05:43:52.903Z,12.25
2022-12-11T05:44:55.631Z,10.70
2022-12-11T05:46:09.638Z,11.38
2022-12-11T05:47:12.390Z,11.85
2022-12-11T05:48:15.054Z,11.55
2022-12-11T05:49:20.135Z,12.95
2022-12-11T05:50:25.472Z,11.10
2022-12-11T05:51:29.509Z,11.20
2022-12-11T05:52:32.833Z,11.75
2022-12-11T05:53:39.191Z,12.90
2022-12-11T05:54:41.731Z,11.18
2022-12-11T05:55:45.782Z,10.95
2022-12-11T05:56:50.207Z,11.73
2022-12-11T05:57:53.033Z,12.48
2022-12-11T05:58:56.788Z,9.43
2022-12-11T05:59:59.514Z,11.70
2022-12-11T06:01:06.563Z,12.15
2022-12-11T06:02:09.413Z,11.32
2022-12-11T06:03:12.288Z,12.10
2022-12-11T06:04:15.048Z,9.90
2022-12-11T06:05:17.655Z,10.80
2022-12-11T06:06:20.481Z,10.50
2022-12-11T06:07:23.061Z,11.18
2022-12-11T06:08:25.746Z,10.48
2022-12-11T06:09:28.453Z,9.40
2022-12-11T06:10:31.324Z,9.98
2022-12-11T06:11:34.999Z,10.27
2022-12-11T06:12:38.159Z,9.95
2022-12-11T06:13:40.858Z,9.45
2022-12-11T06:14:43.537Z,10.10
2022-12-11T06:15:46.201Z,10.27
2022-12-11T06:16:50.236Z,10.15
2022-12-11T06:17:53.345Z,11.25
2022-12-11T06:18:58.466Z,10.00
2022-12-11T06:20:01.353Z,11.23
2022-12-11T06:21:12.470Z,9.10
2022-12-11T06:22:15.261Z,10.90
2022-12-11T06:23:18.121Z,9.98
2022-12-11T06:24:20.891Z,9.93
2022-12-11T06:25:23.550Z,9.70
2022-12-11T06:26:26.783Z,9.48
2022-12-11T06:27:29.482Z,8.35
2022-12-11T06:28:32.154Z,9.35
2022-12-11T06:29:34.915Z,9.07
2022-12-11T06:30:38.948Z,9.27
2022-12-11T06:31:43.085Z,9.75
2022-12-11T06:32:45.799Z,9.85
2022-12-11T06:33:48.564Z,10.20
2022-12-11T06:34:51.240Z,7.85
2022-12-11T06:35:54.020Z,9.88
2022-12-11T06:36:56.716Z,9.32
2022-12-11T06:37:59.633Z,9.43
2022-12-11T06:39:02.469Z,10.75
2022-12-11T06:40:06.466Z,9.05
2022-12-11T06:41:09.635Z,9.77
2022-12-11T06:42:13.508Z,8.38
2022-12-11T06:43:16.156Z,8.90
2022-12-11T06:44:18.851Z,10.20
2022-12-11T06:45:21.466Z,8.10
2022-12-11T06:46:24.314Z,7.65
2022-12-11T06:47:27.883Z,9.25
2022-12-11T06:48:30.563Z,9.05
2022-12-11T06:49:33.550Z,8.02
2022-12-11T06:50:38.331Z,8.20
2022-12-11T06:51:41.067Z,9.02
2022-12-11T06:52:43.773Z,8.65
2022-12-11T06:53:52.247Z,8.82
2022-12-11T06:54:55.363Z,8.40
2022-12-11T06:56:05.836Z,7.93
2022-12-11T06:57:09.719Z,8.73
2022-12-11T06:58:12.553Z,9.00
2022-12-11T06:59:15.240Z,8.35
2022-12-11T07:00:17.926Z,7.15
2022-12-11T07:01:25.417Z,8.05
2022-12-11T07:02:28.448Z,7.63
2022-12-11T07:03:31.194Z,7.63
2022-12-11T07:04:34.894Z,8.10
2022-12-11T07:05:37.505Z,8.27
2022-12-11T07:06:40.143Z,8.05
2022-12-11T07:07:42.932Z,8.75
2022-12-11T07:08:45.830Z,8.65
2022-12-11T07:09:48.445Z,8.68
2022-12-11T07:10:51.159Z,8.20
2022-12-11T07:11:54.010Z,8.48
2022-12-11T07:12:57.025Z,7.90
2022-12-11T07:14:00.816Z,7.78
2022-12-11T07:15:04.854Z,8.10
2022-12-11T07:16:11.044Z,8.13
2022-12-11T07:17:14.012Z,9.30
2022-12-11T07:18:17.002Z,7.53
2022-12-11T07:19:19.607Z,8.18
2022-12-11T07:20:22.523Z,8.75
2022-12-11T07:21:25.193Z,9.50
2022-12-11T07:22:29.091Z,8.27
2022-12-11T07:23:31.822Z,8.25
2022-12-11T07:24:34.673Z,8.65
2022-12-11T07:25:37.907Z,9.40
2022-12-11T07:26:40.758Z,7.50
2022-12-11T07:27:43.613Z,7.78
2022-12-11T07:28:46.608Z,7.90
2022-12-11T07:29:51.114Z,7.82
2022-12-11T07:30:53.808Z,6.70
2022-12-11T07:31:56.664Z,8.55
2022-12-11T07:32:59.538Z,8.57
2022-12-11T07:34:04.550Z,7.82
2022-12-11T07:35:07.602Z,8.98
2022-12-11T07:36:11.918Z,10.02
2022-12-11T07:37:14.660Z,7.60
2022-12-11T07:38:17.344Z,8.82
2022-12-11T07:39:20.034Z,8.68
2022-12-11T07:40:22.835Z,9.65
2022-12-11T07:41:27.759Z,8.52
2022-12-11T07:42:30.386Z,8.30
2022-12-11T07:43:36.168Z,8.20
2022-12-11T07:44:38.796Z,8.00
2022-12-11T07:45:41.544Z,8.35
2022-12-11T07:46:44.236Z,7.38
2022-12-11T07:47:46.959Z,8.95
2022-12-11T07:48:49.704Z,7.75
2022-12-11T07:49:52.338Z,8.90
2022-12-11T07:50:54.961Z,8.48
2022-12-11T07:51:57.636Z,8.45
2022-12-11T07:53:01.080Z,7.85
2022-12-11T07:54:08.968Z,8.10
2022-12-11T07:55:11.769Z,8.35
2022-12-11T07:56:15.841Z,8.52
2022-12-11T07:57:18.538Z,8.05
2022-12-11T07:58:21.233Z,8.43
2022-12-11T07:59:24.039Z,9.25
2022-12-11T08:00:26.921Z,7.78
2022-12-11T08:01:31.895Z,9.25
2022-12-11T08:02:37.366Z,8.70
2022-12-11T08:03:40.677Z,8.98
2022-12-11T08:04:43.349Z,7.88
2022-12-11T08:05:50.321Z,8.75
2022-12-11T08:06:53.222Z,8.85
2022-12-11T08:07:56.042Z,8.02
2022-12-11T08:08:59.852Z,8.52
2022-12-11T08:10:03.520Z,6.43
2022-12-11T08:11:08.305Z,8.68
2022-12-11T08:12:11.977Z,9.68
2022-12-11T08:13:15.400Z,8.40
2022-12-11T08:14:18.536Z,8.82
2022-12-11T08:15:21.176Z,8.43
2022-12-11T08:16:24.015Z,8.98
2022-12-11T08:17:30.989Z,8.43
2022-12-11T08:18:37.294Z,7.85
2022-12-11T08:19:39.883Z,9.23
2022-12-11T08:20:42.541Z,8.02
2022-12-11T08:21:47.237Z,7.95
2022-12-11T08:22:52.380Z,8.65
2022-12-11T08:23:58.845Z,8.60
2022-12-11T08:25:01.521Z,8.85
2022-12-11T08:26:09.100Z,7.32
2022-12-11T08:27:11.789Z,7.40
2022-12-11T08:28:14.488Z,7.82
2022-12-11T08:29:17.196Z,8.10
2022-12-11T08:30:19.858Z,9.88
2022-12-11T08:31:22.862Z,7.97
2022-12-11T08:32:25.506Z,8.90
2022-12-11T08:33:28.113Z,8.13
2022-12-11T08:34:30.713Z,9.15
2022-12-11T08:35:33.632Z,7.20
2022-12-11T08:36:36.384Z,8.77
2022-12-11T08:37:40.389Z,8.68
2022-12-11T08:38:43.505Z,7.30
2022-12-11T08:39:47.051Z,8.20
2022-12-11T08:40:49.726Z,8.05
2022-12-11T08:41:52.349Z,7.20
2022-12-11T08:42:54.911Z,7.88
2022-12-11T08:43:58.790Z,7.82
2022-12-11T08:45:01.491Z,7.68
2022-12-11T08:46:04.623Z,8.07
2022-12-11T08:47:09.925Z,9.20
2022-12-11T08:48:12.636Z,8.82
2022-12-11T08:49:15.373Z,8.57
2022-12-11T08:50:18.139Z,8.10
2022-12-11T08:51:23.085Z,9.85
2022-12-11T08:52:25.676Z,7.63
2022-12-11T08:53:32.008Z,9.60
2022-12-11T08:54:34.799Z,8.52
2022-12-11T08:55:37.420Z,8.10
2022-12-11T08:56:40.252Z,8.55
2022-12-11T08:57:42.875Z,8.40
2022-12-11T08:58:46.074Z,8.93
2022-12-11T08:59:48.986Z,8.18
2022-12-11T09:00:51.807Z,9.38
2022-12-11T09:01:55.825Z,8.60
2022-12-11T09:02:58.612Z,8.95
2022-12-11T09:04:01.425Z,8.88
2022-12-11T09:05:08.010Z,9.52
2022-12-11T09:06:13.951Z,9.25
2022-12-11T09:07:16.578Z,8.65
2022-12-11T09:08:19.206Z,8.30
2022-12-11T09:09:21.878Z,9.23
2022-12-11T09:10:24.481Z,9.20
2022-12-11T09:11:30.700Z,8.95
2022-12-11T09:12:36.860Z,9.45
2022-12-11T09:13:40.217Z,8.40
2022-12-11T09:14:42.902Z,8.93
2022-12-11T09:15:45.596Z,9.70
2022-12-11T09:16:48.296Z,9.77
2022-12-11T09:17:51.014Z,9.48
2022-12-11T09:18:55.309Z,9.30
2022-12-11T09:19:58.130Z,8.82
2022-12-11T09:21:01.978Z,8.95
2022-12-11T09:22:04.697Z,9.93
2022-12-11T09:23:07.372Z,8.82
2022-12-11T09:24:11.371Z,8.95
2022-12-11T09:25:14.068Z,8.02
2022-12-11T09:26:18.198Z,7.68
2022-12-11T09:27:21.446Z,8.95
2022-12-11T09:28:25.045Z,8.90
2022-12-11T09:29:27.677Z,9.00
2022-12-11T09:30:30.432Z,9.73
2022-12-11T09:31:35.271Z,9.43
2022-12-11T09:32:38.019Z,10.13
2022-12-11T09:33:40.906Z,9.15
2022-12-11T09:34:43.631Z,8.40
2022-12-11T09:35:46.299Z,9.77
2022-12-11T09:36:48.946Z,8.55
2022-12-11T09:37:51.767Z,10.05
2022-12-11T09:38:54.644Z,8.90
2022-12-11T09:40:00.250Z,9.45
2022-12-11T09:41:30.391Z,9.43
2022-12-11T09:42:53.593Z,8.55
2022-12-11T09:44:24.182Z,8.00
2022-12-11T09:45:26.776Z,9.63
2022-12-11T09:46:33.992Z,8.40
2022-12-11T09:47:41.342Z,7.43
2022-12-11T09:48:48.822Z,8.57
2022-12-11T09:49:58.525Z,8.65
2022-12-11T09:51:03.829Z,10.25
2022-12-11T09:52:12.067Z,8.25
2022-12-11T09:53:27.022Z,9.70
2022-12-11T09:54:33.126Z,7.93
2022-12-11T09:55:59.927Z,9.43
2022-12-11T09:57:16.782Z,8.15
2022-12-11T09:58:34.664Z,9.05
2022-12-11T10:00:06.561Z,7.03
2022-12-11T10:01:37.424Z,9.00
2022-12-11T10:02:49.177Z,8.18
2022-12-11T10:04:10.551Z,9.20
2022-12-11T10:05:26.516Z,8.68
2022-12-11T10:06:35.942Z,7.93
2022-12-11T10:07:51.360Z,9.57
2022-12-11T10:09:19.044Z,9.02
2022-12-11T10:10:44.038Z,8.45
2022-12-11T10:12:07.543Z,8.40
2022-12-11T10:13:49.238Z,10.07
2022-12-11T10:15:29.520Z,9.27
2022-12-11T10:16:44.289Z,9.18
2022-12-11T10:17:47.705Z,7.63
2022-12-11T10:18:50.692Z,8.65
2022-12-11T10:19:53.955Z,8.55
2022-12-11T10:20:57.230Z,8.60
2022-12-11T10:22:01.316Z,9.05
2022-12-11T10:23:06.872Z,9.48
2022-12-11T10:24:50.139Z,9.98
2022-12-11T10:25:50.031Z,11.05
2022-12-11T10:26:58.021Z,10.88
2022-12-11T10:28:08.266Z,10.77
2022-12-11T10:29:15.517Z,9.82
2022-12-11T10:30:31.610Z,9.82
2022-12-11T10:31:42.449Z,9.20
2022-12-11T10:32:50.598Z,10.68
2022-12-11T10:34:00.386Z,9.20
2022-12-11T10:35:06.090Z,8.93
2022-12-11T10:36:10.178Z,10.50
2022-12-11T10:37:12.935Z,11.48
2022-12-11T10:38:33.882Z,10.00
2022-12-11T10:40:42.160Z,7.97
2022-12-11T10:41:47.375Z,9.88
2022-12-11T10:42:54.381Z,8.63
2022-12-11T10:43:57.077Z,9.30
2022-12-11T10:45:05.207Z,9.82
2022-12-11T10:46:24.727Z,8.65
2022-12-11T10:47:28.087Z,7.55
2022-12-11T10:48:30.967Z,7.97
2022-12-11T10:49:35.204Z,8.43
2022-12-11T10:50:38.566Z,9.57
2022-12-11T10:51:41.379Z,8.75
2022-12-11T10:52:45.003Z,8.00
2022-12-11T10:53:52.454Z,7.95
2022-12-11T10:55:07.694Z,8.52
2022-12-11T10:56:11.802Z,7.40
2022-12-11T10:57:15.204Z,8.38
2022-12-11T10:58:24.328Z,7.13
2022-12-11T10:59:49.698Z,8.95
2022-12-11T11:01:15.030Z,9.82
2022-12-11T11:02:20.959Z,7.60
2022-12-11T11:03:26.803Z,7.85
2022-12-11T11:04:35.776Z,7.63
2022-12-11T11:05:38.503Z,8.48
2022-12-11T11:06:41.710Z,9.48
2022-12-11T11:07:44.426Z,8.55
2022-12-11T11:08:49.810Z,8.32
2022-12-11T11:10:23.741Z,8.15
2022-12-11T11:11:34.021Z,8.00
2022-12-11T11:12:47.852Z,8.40
2022-12-11T11:13:50.618Z,8.73
2022-12-11T11:15:08.009Z,8.73
2022-12-11T11:16:14.012Z,8.48
2022-12-11T11:17:17.787Z,8.00
2022-12-11T11:18:26.262Z,7.85
2022-12-11T11:19:32.150Z,8.98
2022-12-11T11:20:34.982Z,10.02
2022-12-11T11:21:37.671Z,9.65
2022-12-11T11:22:48.073Z,9.27
2022-12-11T11:23:53.611Z,9.95
2022-12-11T11:24:58.113Z,9.68
2022-12-11T11:26:01.927Z,8.45
2022-12-11T11:27:24.496Z,9.25
2022-12-11T11:28:33.186Z,9.05
2022-12-11T11:29:37.785Z,8.90
2022-12-11T11:30:41.537Z,9.32
2022-12-11T11:31:44.231Z,9.75
2022-12-11T11:32:46.983Z,9.73
2022-12-11T11:34:06.351Z,8.40
2022-12-11T11:35:16.917Z,9.02
2022-12-11T11:36:27.925Z,9.20
2022-12-11T11:37:35.259Z,9.00
2022-12-11T11:38:42.951Z,7.50
2022-12-11T11:39:48.082Z,8.63
2022-12-11T11:41:15.099Z,8.55
2022-12-11T11:42:40.583Z,8.27
2022-12-11T11:43:56.851Z,8.02
2022-12-11T11:45:06.189Z,8.63
2022-12-11T11:46:24.550Z,8.25
2022-12-11T11:47:30.905Z,8.48
2022-12-11T11:48:48.527Z,7.93
2022-12-11T11:49:53.754Z,8.73
2022-12-11T11:50:58.013Z,7.45
2022-12-11T11:52:18.057Z,9.40
2022-12-11T11:53:27.905Z,8.10
2022-12-11T11:54:53.611Z,7.75
2022-12-11T11:56:03.918Z,7.60
2022-12-11T11:57:58.029Z,8.82
2022-12-11T11:59:06.669Z,7.30
2022-12-11T12:00:28.742Z,7.57
2022-12-11T12:01:34.978Z,7.00
2022-12-11T12:02:37.934Z,7.90
2022-12-11T12:03:40.906Z,7.47
2022-12-11T12:04:44.398Z,7.43
2022-12-11T12:05:53.293Z,7.97
2022-12-11T12:07:07.853Z,7.30
2022-12-11T12:08:29.174Z,7.70
2022-12-11T12:09:40.924Z,7.18
2022-12-11T12:10:58.628Z,7.40
2022-12-11T12:12:33.843Z,7.05
2022-12-11T12:13:49.513Z,5.90
2022-12-11T12:15:21.897Z,6.70
2022-12-11T12:16:53.899Z,5.88
2022-12-11T12:17:58.841Z,5.60
2022-12-11T12:19:15.347Z,8.18
2022-12-11T12:20:29.955Z,6.65
2022-12-11T12:21:39.060Z,6.03
2022-12-11T12:22:53.938Z,6.43
2022-12-11T12:23:59.395Z,6.18
2022-12-11T12:25:27.432Z,7.18
2022-12-11T12:26:32.175Z,7.32
2022-12-11T12:28:00.852Z,7.00
2022-12-11T12:29:13.973Z,6.45
2022-12-11T12:30:22.393Z,6.68
2022-12-11T12:31:47.529Z,5.88
2022-12-11T12:33:09.204Z,6.75
2022-12-11T12:34:41.084Z,6.43
2022-12-11T12:36:16.312Z,6.15
2022-12-11T12:37:37.850Z,5.68
2022-12-11T12:39:02.681Z,7.05
2022-12-11T12:40:17.057Z,6.43
2022-12-11T12:41:32.553Z,5.45
2022-12-11T12:42:39.444Z,6.05
2022-12-11T12:43:53.763Z,8.18
2022-12-11T12:45:14.490Z,7.07
2022-12-11T12:46:29.133Z,5.57
2022-12-11T12:47:33.857Z,7.05
2022-12-11T12:48:36.696Z,6.00
2022-12-11T12:49:49.284Z,6.93
2022-12-11T12:50:52.194Z,6.28
2022-12-11T12:51:55.722Z,7.78
2022-12-11T12:52:58.796Z,6.93
2022-12-11T12:54:06.647Z,6.28
2022-12-11T12:55:22.806Z,7.80
2022-12-11T12:56:26.719Z,6.78
2022-12-11T12:57:29.395Z,6.05
2022-12-11T12:58:34.956Z,8.38
2022-12-11T12:59:37.900Z,6.88
2022-12-11T13:00:43.332Z,6.47
2022-12-11T13:01:52.613Z,7.47
2022-12-11T13:02:56.446Z,7.22
2022-12-11T13:04:06.619Z,7.50
2022-12-11T13:05:24.837Z,8.48
2022-12-11T13:06:35.183Z,9.05
2022-12-11T13:07:38.223Z,8.35
2022-12-11T13:08:47.496Z,8.85
2022-12-11T13:10:19.569Z,8.10
2022-12-11T13:11:31.922Z,8.27
2022-12-11T13:12:45.118Z,7.40
2022-12-11T13:13:55.100Z,7.53
2022-12-11T13:14:58.006Z,9.65
2022-12-11T13:16:43.214Z,7.28
2022-12-11T13:17:45.919Z,6.75
2022-12-11T13:18:49.091Z,8.25
2022-12-11T13:20:06.683Z,8.50
2022-12-11T13:21:27.404Z,6.93
2022-12-11T13:22:30.084Z,7.95
2022-12-11T13:23:34.342Z,8.10
2022-12-11T13:24:46.785Z,6.78
2022-12-11T13:25:55.306Z,8.30
2022-12-11T13:27:15.188Z,8.10
2022-12-11T13:28:34.357Z,8.48
2022-12-11T13:29:39.749Z,7.57
2022-12-11T13:30:43.199Z,8.05
2022-12-11T13:31:45.874Z,8.80
2022-12-11T13:33:30.026Z,7.07
2022-12-11T13:34:34.136Z,6.60
2022-12-11T13:35:37.447Z,7.55
2022-12-11T13:36:41.105Z,8.23
2022-12-11T13:37:45.129Z,8.05
2022-12-11T13:38:59.188Z,7.75
2022-12-11T13:40:06.323Z,6.85
2022-12-11T13:41:12.612Z,7.57
2022-12-11T13:42:28.527Z,8.07
2022-12-11T13:43:32.870Z,6.40
2022-12-11T13:44:40.208Z,7.50
2022-12-11T13:45:43.024Z,6.13
2022-12-11T13:46:45.890Z,7.22
2022-12-11T13:47:48.864Z,7.75
2022-12-11T13:49:00.830Z,7.03
2022-12-11T13:50:16.973Z,7.40
2022-12-11T13:51:22.200Z,7.05
2022-12-11T13:52:28.804Z,8.38
2022-12-11T13:53:31.711Z,6.85
2022-12-11T13:54:36.485Z,6.45
2022-12-11T13:55:39.258Z,6.80
2022-12-11T13:56:53.260Z,6.88
2022-12-11T13:57:56.316Z,6.93
2022-12-11T13:58:59.372Z,6.88
2022-12-11T14:00:02.039Z,7.15
2022-12-11T14:01:33.572Z,7.55
2022-12-11T14:02:39.622Z,7.30
2022-12-11T14:04:05.481Z,7.15
2022-12-11T14:05:12.979Z,7.13
2022-12-11T14:06:18.943Z,7.05
2022-12-11T14:07:30.929Z,6.55
2022-12-11T14:08:36.174Z,7.88
2022-12-11T14:09:43.662Z,6.88
2022-12-11T14:10:51.993Z,7.80
2022-12-11T14:11:57.425Z,6.68
2022-12-11T14:13:06.137Z,7.72
2022-12-11T14:14:27.641Z,7.50
2022-12-11T14:15:31.785Z,8.45
2022-12-11T14:16:34.867Z,8.75
2022-12-11T14:17:37.844Z,9.05
2022-12-11T14:18:41.643Z,9.23
2022-12-11T14:19:48.278Z,9.82
2022-12-11T14:20:58.334Z,10.10
2022-12-11T14:22:03.646Z,10.73
2022-12-11T14:23:18.242Z,8.77
2022-12-11T14:24:20.855Z,8.35
2022-12-11T14:25:28.052Z,8.82
2022-12-11T14:26:34.231Z,8.57
2022-12-11T14:27:37.365Z,9.93
2022-12-11T14:28:42.506Z,8.45
2022-12-11T14:29:45.318Z,8.98
2022-12-11T14:30:50.928Z,8.48
2022-12-11T14:31:54.419Z,8.05
2022-12-11T14:33:03.424Z,7.68
2022-12-11T14:34:28.436Z,7.50
2022-12-11T14:35:38.922Z,7.53
2022-12-11T14:36:42.847Z,6.78
2022-12-11T14:37:45.549Z,6.72
2022-12-11T14:38:55.003Z,8.15
2022-12-11T14:40:08.674Z,7.53
2022-12-11T14:41:29.610Z,7.93
2022-12-11T14:43:47.662Z,8.02